sensor_id;sensor_type;location;lat;lon;timestamp;temperature;humidity
13409;DHT22;6775;49.574;11.170;2023-06-22T00:00:54;17.70;99.90
13409;DHT22;6775;49.574;11.170;2023-06-22T00:03:23;17.70;99.90
13409;DHT22;6775;49.574;11.170;2023-06-22T00:05:52;17.70;99.90
13409;DHT22;6775;49.574;11.170;2023-06-22T00:08:20;17.80;99.90
13409;DHT22;6775;49.574;11.170;2023-06-22T00:10:48;17.80;99.90
13409;DHT22;6775;49.574;11.170;2023-06-22T00:13:16;17.80;99.90
13409;DHT22;6775;49.574;11.170;2023-06-22T00:15:46;17.80;99.90
13409;DHT22;6775;49.574;11.170;2023-06-22T00:18:13;17.80;99.90
13409;DHT22;6775;49.574;11.170;2023-06-22T00:20:42;17.70;99.90
13409;DHT22;6775;49.574;11.170;2023-06-22T00:23:12;17.70;99.90
13409;DHT22;6775;49.574;11.170;2023-06-22T00:25:42;17.70;99.90
13409;DHT22;6775;49.574;11.170;2023-06-22T00:28:10;17.80;99.90
13409;DHT22;6775;49.574;11.170;2023-06-22T00:30:38;17.90;99.90
13409;DHT22;6775;49.574;11.170;2023-06-22T00:33:07;17.90;99.90
13409;DHT22;6775;49.574;11.170;2023-06-22T00:35:35;17.90;99.90
13409;DHT22;6775;49.574;11.170;2023-06-22T00:38:02;17.90;99.90
13409;DHT22;6775;49.574;11.170;2023-06-22T00:40:32;17.80;99.90
13409;DHT22;6775;49.574;11.170;2023-06-22T00:43:00;17.90;99.90
13409;DHT22;6775;49.574;11.170;2023-06-22T00:45:28;17.90;99.90
13409;DHT22;6775;49.574;11.170;2023-06-22T00:47:57;17.90;99.90
13409;DHT22;6775;49.574;11.170;2023-06-22T00:50:27;17.90;99.90
13409;DHT22;6775;49.574;11.170;2023-06-22T00:53:02;18.00;99.90
13409;DHT22;6775;49.574;11.170;2023-06-22T00:55:35;18.00;99.90
13409;DHT22;6775;49.574;11.170;2023-06-22T00:58:06;18.00;99.90
13409;DHT22;6775;49.574;11.170;2023-06-22T01:00:37;18.00;99.90
13409;DHT22;6775;49.574;11.170;2023-06-22T01:03:05;18.00;99.90
13409;DHT22;6775;49.574;11.170;2023-06-22T01:05:38;18.10;99.90
13409;DHT22;6775;49.574;11.170;2023-06-22T01:08:15;18.10;99.90
13409;DHT22;6775;49.574;11.170;2023-06-22T01:10:48;18.10;99.90
13409;DHT22;6775;49.574;11.170;2023-06-22T01:13:25;18.00;99.90
13409;DHT22;6775;49.574;11.170;2023-06-22T01:16:00;17.90;99.90
13409;DHT22;6775;49.574;11.170;2023-06-22T01:18:31;17.80;99.90
13409;DHT22;6775;49.574;11.170;2023-06-22T01:21:04;17.80;99.90
13409;DHT22;6775;49.574;11.170;2023-06-22T01:24:01;17.70;99.90
13409;DHT22;6775;49.574;11.170;2023-06-22T01:26:37;17.60;99.90
13409;DHT22;6775;49.574;11.170;2023-06-22T01:29:08;17.50;99.90
13409;DHT22;6775;49.574;11.170;2023-06-22T01:31:39;17.40;99.90
13409;DHT22;6775;49.574;11.170;2023-06-22T01:34:09;17.20;99.90
13409;DHT22;6775;49.574;11.170;2023-06-22T01:36:38;17.00;99.90
13409;DHT22;6775;49.574;11.170;2023-06-22T01:39:07;16.90;99.90
13409;DHT22;6775;49.574;11.170;2023-06-22T01:41:37;16.90;99.90
13409;DHT22;6775;49.574;11.170;2023-06-22T01:44:08;16.90;99.90
13409;DHT22;6775;49.574;11.170;2023-06-22T01:46:37;16.90;99.90
13409;DHT22;6775;49.574;11.170;2023-06-22T01:49:06;17.00;99.90
13409;DHT22;6775;49.574;11.170;2023-06-22T01:51:35;17.00;99.90
13409;DHT22;6775;49.574;11.170;2023-06-22T01:54:03;17.10;99.90
13409;DHT22;6775;49.574;11.170;2023-06-22T01:56:30;17.20;99.90
13409;DHT22;6775;49.574;11.170;2023-06-22T01:59:04;17.20;99.90
13409;DHT22;6775;49.574;11.170;2023-06-22T02:01:39;17.30;99.90
13409;DHT22;6775;49.574;11.170;2023-06-22T02:04:12;17.40;99.90
13409;DHT22;6775;49.574;11.170;2023-06-22T02:06:43;17.40;99.90
13409;DHT22;6775;49.574;11.170;2023-06-22T02:09:16;17.40;99.90
13409;DHT22;6775;49.574;11.170;2023-06-22T02:11:45;17.40;99.90
13409;DHT22;6775;49.574;11.170;2023-06-22T02:14:15;17.50;99.90
13409;DHT22;6775;49.574;11.170;2023-06-22T02:16:46;17.60;99.90
13409;DHT22;6775;49.574;11.170;2023-06-22T02:19:14;17.60;99.90
13409;DHT22;6775;49.574;11.170;2023-06-22T02:21:45;17.60;99.90
13409;DHT22;6775;49.574;11.170;2023-06-22T02:24:13;17.60;99.90
13409;DHT22;6775;49.574;11.170;2023-06-22T02:26:41;17.60;99.90
13409;DHT22;6775;49.574;11.170;2023-06-22T02:29:11;17.60;99.90
13409;DHT22;6775;49.574;11.170;2023-06-22T02:31:39;17.60;99.90
13409;DHT22;6775;49.574;11.170;2023-06-22T02:34:08;17.50;99.90
13409;DHT22;6775;49.574;11.170;2023-06-22T02:36:36;17.30;99.90
13409;DHT22;6775;49.574;11.170;2023-06-22T02:39:04;17.20;99.90
13409;DHT22;6775;49.574;11.170;2023-06-22T02:41:31;17.20;99.90
13409;DHT22;6775;49.574;11.170;2023-06-22T02:43:59;17.20;99.90
13409;DHT22;6775;49.574;11.170;2023-06-22T02:46:27;17.20;99.90
13409;DHT22;6775;49.574;11.170;2023-06-22T02:48:55;17.20;99.90
13409;DHT22;6775;49.574;11.170;2023-06-22T02:51:24;17.30;99.90
13409;DHT22;6775;49.574;11.170;2023-06-22T02:53:52;17.30;99.90
13409;DHT22;6775;49.574;11.170;2023-06-22T02:56:24;17.40;99.90
13409;DHT22;6775;49.574;11.170;2023-06-22T02:58:52;17.50;99.90
13409;DHT22;6775;49.574;11.170;2023-06-22T03:01:20;17.60;99.90
13409;DHT22;6775;49.574;11.170;2023-06-22T03:03:50;17.60;99.90
13409;DHT22;6775;49.574;11.170;2023-06-22T03:06:18;17.60;99.90
13409;DHT22;6775;49.574;11.170;2023-06-22T03:08:52;17.60;99.90
13409;DHT22;6775;49.574;11.170;2023-06-22T03:11:19;17.60;99.90
13409;DHT22;6775;49.574;11.170;2023-06-22T03:13:47;17.60;99.90
13409;DHT22;6775;49.574;11.170;2023-06-22T03:16:15;17.60;99.90
13409;DHT22;6775;49.574;11.170;2023-06-22T03:18:43;17.70;99.90
13409;DHT22;6775;49.574;11.170;2023-06-22T03:21:11;17.70;99.90
13409;DHT22;6775;49.574;11.170;2023-06-22T03:23:38;17.70;99.90
13409;DHT22;6775;49.574;11.170;2023-06-22T03:26:08;17.70;99.90
13409;DHT22;6775;49.574;11.170;2023-06-22T03:28:37;17.70;99.90
13409;DHT22;6775;49.574;11.170;2023-06-22T03:31:05;17.70;99.90
13409;DHT22;6775;49.574;11.170;2023-06-22T03:33:34;17.70;99.90
13409;DHT22;6775;49.574;11.170;2023-06-22T03:36:02;17.70;99.90
13409;DHT22;6775;49.574;11.170;2023-06-22T03:38:30;17.70;99.90
13409;DHT22;6775;49.574;11.170;2023-06-22T03:40:58;17.70;99.90
13409;DHT22;6775;49.574;11.170;2023-06-22T03:43:27;17.60;99.90
13409;DHT22;6775;49.574;11.170;2023-06-22T03:45:54;17.60;99.90
13409;DHT22;6775;49.574;11.170;2023-06-22T03:48:22;17.60;99.90
13409;DHT22;6775;49.574;11.170;2023-06-22T03:50:50;17.40;99.90
13409;DHT22;6775;49.574;11.170;2023-06-22T03:53:18;17.40;99.90
13409;DHT22;6775;49.574;11.170;2023-06-22T03:55:49;17.30;99.90
13409;DHT22;6775;49.574;11.170;2023-06-22T03:58:18;17.40;99.90
13409;DHT22;6775;49.574;11.170;2023-06-22T04:00:48;17.40;99.90
13409;DHT22;6775;49.574;11.170;2023-06-22T04:03:16;17.40;99.90
13409;DHT22;6775;49.574;11.170;2023-06-22T04:05:45;17.40;99.90
13409;DHT22;6775;49.574;11.170;2023-06-22T04:08:14;17.50;99.90
13409;DHT22;6775;49.574;11.170;2023-06-22T04:10:42;17.50;99.90
13409;DHT22;6775;49.574;11.170;2023-06-22T04:13:10;17.60;99.90
13409;DHT22;6775;49.574;11.170;2023-06-22T04:15:38;17.60;99.90
13409;DHT22;6775;49.574;11.170;2023-06-22T04:18:07;17.60;99.90
13409;DHT22;6775;49.574;11.170;2023-06-22T04:20:35;17.60;99.90
13409;DHT22;6775;49.574;11.170;2023-06-22T04:23:03;17.70;99.90
13409;DHT22;6775;49.574;11.170;2023-06-22T04:25:31;17.80;99.90
13409;DHT22;6775;49.574;11.170;2023-06-22T04:27:59;17.80;99.90
13409;DHT22;6775;49.574;11.170;2023-06-22T04:30:30;17.90;99.90
13409;DHT22;6775;49.574;11.170;2023-06-22T04:32:58;18.00;99.90
13409;DHT22;6775;49.574;11.170;2023-06-22T04:35:28;18.10;99.90
13409;DHT22;6775;49.574;11.170;2023-06-22T04:37:57;18.20;99.90
13409;DHT22;6775;49.574;11.170;2023-06-22T04:40:25;18.30;99.90
13409;DHT22;6775;49.574;11.170;2023-06-22T04:42:54;18.40;99.90
13409;DHT22;6775;49.574;11.170;2023-06-22T04:45:22;18.40;99.90
13409;DHT22;6775;49.574;11.170;2023-06-22T04:47:50;18.50;99.90
13409;DHT22;6775;49.574;11.170;2023-06-22T04:50:18;18.50;99.90
13409;DHT22;6775;49.574;11.170;2023-06-22T04:52:49;18.70;99.90
13409;DHT22;6775;49.574;11.170;2023-06-22T04:55:17;18.80;99.90
13409;DHT22;6775;49.574;11.170;2023-06-22T04:57:46;18.90;99.90
13409;DHT22;6775;49.574;11.170;2023-06-22T05:00:16;18.90;99.90
13409;DHT22;6775;49.574;11.170;2023-06-22T05:02:46;19.00;99.90
13409;DHT22;6775;49.574;11.170;2023-06-22T05:05:15;19.00;99.90
13409;DHT22;6775;49.574;11.170;2023-06-22T05:07:44;19.00;99.90
13409;DHT22;6775;49.574;11.170;2023-06-22T05:10:15;19.10;99.90
13409;DHT22;6775;49.574;11.170;2023-06-22T05:12:43;19.20;99.90
13409;DHT22;6775;49.574;11.170;2023-06-22T05:15:11;19.30;99.90
13409;DHT22;6775;49.574;11.170;2023-06-22T05:17:39;19.40;99.90
13409;DHT22;6775;49.574;11.170;2023-06-22T05:20:10;19.60;99.90
13409;DHT22;6775;49.574;11.170;2023-06-22T05:22:39;19.70;99.90
13409;DHT22;6775;49.574;11.170;2023-06-22T05:25:09;19.90;99.90
13409;DHT22;6775;49.574;11.170;2023-06-22T05:27:39;20.00;99.90
13409;DHT22;6775;49.574;11.170;2023-06-22T05:30:08;20.10;99.90
13409;DHT22;6775;49.574;11.170;2023-06-22T05:32:36;20.20;99.90
13409;DHT22;6775;49.574;11.170;2023-06-22T05:35:04;20.30;99.90
13409;DHT22;6775;49.574;11.170;2023-06-22T05:37:32;20.40;99.90
13409;DHT22;6775;49.574;11.170;2023-06-22T05:40:00;20.50;99.90
13409;DHT22;6775;49.574;11.170;2023-06-22T05:42:29;20.60;99.90
13409;DHT22;6775;49.574;11.170;2023-06-22T05:44:59;20.70;99.90
13409;DHT22;6775;49.574;11.170;2023-06-22T05:47:26;20.80;99.90
13409;DHT22;6775;49.574;11.170;2023-06-22T05:49:54;21.00;99.90
13409;DHT22;6775;49.574;11.170;2023-06-22T05:52:22;21.10;99.90
13409;DHT22;6775;49.574;11.170;2023-06-22T05:54:50;21.30;99.90
13409;DHT22;6775;49.574;11.170;2023-06-22T05:57:18;21.40;99.90
13409;DHT22;6775;49.574;11.170;2023-06-22T05:59:48;21.50;99.90
13409;DHT22;6775;49.574;11.170;2023-06-22T06:02:17;21.70;99.90
13409;DHT22;6775;49.574;11.170;2023-06-22T06:04:46;21.70;99.90
13409;DHT22;6775;49.574;11.170;2023-06-22T06:07:14;21.80;99.90
13409;DHT22;6775;49.574;11.170;2023-06-22T06:09:42;21.90;99.90
13409;DHT22;6775;49.574;11.170;2023-06-22T06:12:09;22.00;99.90
13409;DHT22;6775;49.574;11.170;2023-06-22T06:14:37;22.10;99.90
13409;DHT22;6775;49.574;11.170;2023-06-22T06:17:05;22.20;99.90
13409;DHT22;6775;49.574;11.170;2023-06-22T06:19:34;22.30;99.90
13409;DHT22;6775;49.574;11.170;2023-06-22T06:22:03;22.40;99.90
13409;DHT22;6775;49.574;11.170;2023-06-22T06:24:31;22.50;99.90
13409;DHT22;6775;49.574;11.170;2023-06-22T06:26:58;22.60;99.90
13409;DHT22;6775;49.574;11.170;2023-06-22T06:29:26;22.70;99.90
13409;DHT22;6775;49.574;11.170;2023-06-22T06:31:54;22.80;99.90
13409;DHT22;6775;49.574;11.170;2023-06-22T06:34:23;22.90;99.90
13409;DHT22;6775;49.574;11.170;2023-06-22T06:36:52;23.00;99.90
13409;DHT22;6775;49.574;11.170;2023-06-22T06:39:20;23.00;99.90
13409;DHT22;6775;49.574;11.170;2023-06-22T06:41:48;23.00;99.90
13409;DHT22;6775;49.574;11.170;2023-06-22T06:44:16;23.00;99.90
13409;DHT22;6775;49.574;11.170;2023-06-22T06:46:44;23.20;99.90
13409;DHT22;6775;49.574;11.170;2023-06-22T06:49:12;23.10;99.90
13409;DHT22;6775;49.574;11.170;2023-06-22T06:51:40;23.30;99.90
13409;DHT22;6775;49.574;11.170;2023-06-22T06:54:09;23.40;99.90
13409;DHT22;6775;49.574;11.170;2023-06-22T06:56:37;23.50;99.90
13409;DHT22;6775;49.574;11.170;2023-06-22T06:59:04;23.70;99.90
13409;DHT22;6775;49.574;11.170;2023-06-22T07:01:32;23.70;99.90
13409;DHT22;6775;49.574;11.170;2023-06-22T07:04:02;23.90;99.90
13409;DHT22;6775;49.574;11.170;2023-06-22T07:06:30;24.00;99.90
13409;DHT22;6775;49.574;11.170;2023-06-22T07:09:00;24.10;99.90
13409;DHT22;6775;49.574;11.170;2023-06-22T07:11:29;24.20;99.90
13409;DHT22;6775;49.574;11.170;2023-06-22T07:13:57;24.30;99.90
13409;DHT22;6775;49.574;11.170;2023-06-22T07:16:25;24.40;99.90
13409;DHT22;6775;49.574;11.170;2023-06-22T07:18:54;24.50;99.90
13409;DHT22;6775;49.574;11.170;2023-06-22T07:21:22;24.60;99.90
13409;DHT22;6775;49.574;11.170;2023-06-22T07:23:50;24.70;99.90
13409;DHT22;6775;49.574;11.170;2023-06-22T07:26:18;24.80;99.90
13409;DHT22;6775;49.574;11.170;2023-06-22T07:28:47;24.90;99.90
13409;DHT22;6775;49.574;11.170;2023-06-22T07:31:15;25.00;99.90
13409;DHT22;6775;49.574;11.170;2023-06-22T07:33:42;25.20;99.90
13409;DHT22;6775;49.574;11.170;2023-06-22T07:36:10;25.20;99.90
13409;DHT22;6775;49.574;11.170;2023-06-22T07:38:38;25.30;99.90
13409;DHT22;6775;49.574;11.170;2023-06-22T07:41:06;25.40;99.90
13409;DHT22;6775;49.574;11.170;2023-06-22T07:43:34;25.60;99.90
13409;DHT22;6775;49.574;11.170;2023-06-22T07:46:05;25.70;99.90
13409;DHT22;6775;49.574;11.170;2023-06-22T07:48:32;25.90;99.90
13409;DHT22;6775;49.574;11.170;2023-06-22T07:51:04;26.00;99.90
13409;DHT22;6775;49.574;11.170;2023-06-22T07:53:32;26.00;99.90
13409;DHT22;6775;49.574;11.170;2023-06-22T07:56:00;26.10;99.90
13409;DHT22;6775;49.574;11.170;2023-06-22T07:58:33;26.20;99.90
13409;DHT22;6775;49.574;11.170;2023-06-22T08:01:01;26.30;99.90
13409;DHT22;6775;49.574;11.170;2023-06-22T08:03:31;26.40;99.90
13409;DHT22;6775;49.574;11.170;2023-06-22T08:05:59;26.50;99.90
13409;DHT22;6775;49.574;11.170;2023-06-22T08:08:27;26.60;99.90
13409;DHT22;6775;49.574;11.170;2023-06-22T08:10:54;26.60;99.90
13409;DHT22;6775;49.574;11.170;2023-06-22T08:13:22;26.60;99.90
13409;DHT22;6775;49.574;11.170;2023-06-22T08:15:50;26.70;99.90
13409;DHT22;6775;49.574;11.170;2023-06-22T08:18:19;26.80;99.90
13409;DHT22;6775;49.574;11.170;2023-06-22T08:20:48;26.80;99.90
13409;DHT22;6775;49.574;11.170;2023-06-22T08:23:17;26.90;99.90
13409;DHT22;6775;49.574;11.170;2023-06-22T08:25:45;27.00;99.90
13409;DHT22;6775;49.574;11.170;2023-06-22T08:28:14;27.20;99.90
13409;DHT22;6775;49.574;11.170;2023-06-22T08:30:42;27.30;99.90
13409;DHT22;6775;49.574;11.170;2023-06-22T08:33:10;27.40;99.90
13409;DHT22;6775;49.574;11.170;2023-06-22T08:35:54;27.50;99.90
13409;DHT22;6775;49.574;11.170;2023-06-22T08:38:22;27.60;99.90
13409;DHT22;6775;49.574;11.170;2023-06-22T08:40:50;27.70;99.90
13409;DHT22;6775;49.574;11.170;2023-06-22T08:43:18;27.80;99.90
13409;DHT22;6775;49.574;11.170;2023-06-22T08:45:46;28.00;99.90
13409;DHT22;6775;49.574;11.170;2023-06-22T08:48:14;28.00;99.90
13409;DHT22;6775;49.574;11.170;2023-06-22T08:50:41;28.20;99.90
13409;DHT22;6775;49.574;11.170;2023-06-22T08:53:11;28.20;99.90
13409;DHT22;6775;49.574;11.170;2023-06-22T08:55:38;28.30;99.90
13409;DHT22;6775;49.574;11.170;2023-06-22T08:58:06;28.30;99.90
13409;DHT22;6775;49.574;11.170;2023-06-22T09:00:34;28.30;99.90
13409;DHT22;6775;49.574;11.170;2023-06-22T09:03:02;28.40;99.90
13409;DHT22;6775;49.574;11.170;2023-06-22T09:05:31;28.40;99.90
13409;DHT22;6775;49.574;11.170;2023-06-22T09:07:59;28.50;99.90
13409;DHT22;6775;49.574;11.170;2023-06-22T09:10:29;28.60;99.90
13409;DHT22;6775;49.574;11.170;2023-06-22T09:12:57;28.70;99.90
13409;DHT22;6775;49.574;11.170;2023-06-22T09:15:25;28.80;99.90
13409;DHT22;6775;49.574;11.170;2023-06-22T09:17:54;28.90;99.90
13409;DHT22;6775;49.574;11.170;2023-06-22T09:20:22;29.00;99.90
13409;DHT22;6775;49.574;11.170;2023-06-22T09:22:50;29.10;99.90
13409;DHT22;6775;49.574;11.170;2023-06-22T09:25:18;29.30;99.90
13409;DHT22;6775;49.574;11.170;2023-06-22T09:27:48;29.30;98.80
13409;DHT22;6775;49.574;11.170;2023-06-22T09:30:16;29.30;98.70
13409;DHT22;6775;49.574;11.170;2023-06-22T09:32:46;29.30;98.90
13409;DHT22;6775;49.574;11.170;2023-06-22T09:35:14;29.30;98.80
13409;DHT22;6775;49.574;11.170;2023-06-22T09:37:42;29.40;98.80
13409;DHT22;6775;49.574;11.170;2023-06-22T09:40:10;29.60;98.80
13409;DHT22;6775;49.574;11.170;2023-06-22T09:42:41;29.70;98.00
13409;DHT22;6775;49.574;11.170;2023-06-22T09:45:10;29.90;98.00
13409;DHT22;6775;49.574;11.170;2023-06-22T09:47:38;30.00;97.50
13409;DHT22;6775;49.574;11.170;2023-06-22T09:50:07;29.90;96.60
13409;DHT22;6775;49.574;11.170;2023-06-22T09:52:35;29.90;97.10
13409;DHT22;6775;49.574;11.170;2023-06-22T09:55:06;30.00;97.30
13409;DHT22;6775;49.574;11.170;2023-06-22T09:57:34;30.20;96.70
13409;DHT22;6775;49.574;11.170;2023-06-22T10:00:03;30.40;96.00
13409;DHT22;6775;49.574;11.170;2023-06-22T10:02:36;30.50;96.00
13409;DHT22;6775;49.574;11.170;2023-06-22T10:05:04;30.60;95.50
13409;DHT22;6775;49.574;11.170;2023-06-22T10:07:36;30.70;95.10
13409;DHT22;6775;49.574;11.170;2023-06-22T10:10:07;30.80;94.90
13409;DHT22;6775;49.574;11.170;2023-06-22T10:12:35;30.70;94.70
13409;DHT22;6775;49.574;11.170;2023-06-22T10:15:04;30.80;94.70
13409;DHT22;6775;49.574;11.170;2023-06-22T10:17:32;30.80;94.60
13409;DHT22;6775;49.574;11.170;2023-06-22T10:20:01;30.80;93.60
13409;DHT22;6775;49.574;11.170;2023-06-22T10:22:33;30.90;93.40
13409;DHT22;6775;49.574;11.170;2023-06-22T10:25:01;30.90;93.00
13409;DHT22;6775;49.574;11.170;2023-06-22T10:27:29;31.00;92.90
13409;DHT22;6775;49.574;11.170;2023-06-22T10:29:58;31.00;93.10
13409;DHT22;6775;49.574;11.170;2023-06-22T10:32:25;31.10;92.90
13409;DHT22;6775;49.574;11.170;2023-06-22T10:34:54;31.30;93.00
13409;DHT22;6775;49.574;11.170;2023-06-22T10:37:26;31.40;91.90
13409;DHT22;6775;49.574;11.170;2023-06-22T10:39:54;31.50;92.00
13409;DHT22;6775;49.574;11.170;2023-06-22T10:42:22;31.60;92.10
13409;DHT22;6775;49.574;11.170;2023-06-22T10:44:50;31.70;92.10
13409;DHT22;6775;49.574;11.170;2023-06-22T10:47:17;31.90;91.40
13409;DHT22;6775;49.574;11.170;2023-06-22T10:49:45;32.00;91.00
13409;DHT22;6775;49.574;11.170;2023-06-22T10:52:13;32.00;90.00
13409;DHT22;6775;49.574;11.170;2023-06-22T10:54:42;32.00;90.50
13409;DHT22;6775;49.574;11.170;2023-06-22T10:57:10;32.10;89.90
13409;DHT22;6775;49.574;11.170;2023-06-22T10:59:38;32.10;89.40
13409;DHT22;6775;49.574;11.170;2023-06-22T11:02:06;32.30;89.20
13409;DHT22;6775;49.574;11.170;2023-06-22T11:04:34;32.30;88.70
13409;DHT22;6775;49.574;11.170;2023-06-22T11:07:02;32.30;86.80
13409;DHT22;6775;49.574;11.170;2023-06-22T11:09:30;32.30;85.40
13409;DHT22;6775;49.574;11.170;2023-06-22T11:11:59;32.40;86.30
13409;DHT22;6775;49.574;11.170;2023-06-22T11:14:27;32.50;85.80
13409;DHT22;6775;49.574;11.170;2023-06-22T11:16:55;32.50;85.00
13409;DHT22;6775;49.574;11.170;2023-06-22T11:19:23;32.60;84.60
13409;DHT22;6775;49.574;11.170;2023-06-22T11:21:51;32.60;85.00
13409;DHT22;6775;49.574;11.170;2023-06-22T11:24:19;32.60;85.20
13409;DHT22;6775;49.574;11.170;2023-06-22T11:26:47;32.80;84.70
13409;DHT22;6775;49.574;11.170;2023-06-22T11:29:16;32.90;83.60
13409;DHT22;6775;49.574;11.170;2023-06-22T11:31:58;32.90;83.00
13409;DHT22;6775;49.574;11.170;2023-06-22T11:34:26;33.00;82.40
13409;DHT22;6775;49.574;11.170;2023-06-22T11:36:54;33.10;81.80
13409;DHT22;6775;49.574;11.170;2023-06-22T11:39:22;33.10;80.70
13409;DHT22;6775;49.574;11.170;2023-06-22T11:42:07;33.10;80.00
13409;DHT22;6775;49.574;11.170;2023-06-22T11:44:37;33.00;80.10
13409;DHT22;6775;49.574;11.170;2023-06-22T11:47:05;33.10;81.20
13409;DHT22;6775;49.574;11.170;2023-06-22T11:49:33;33.20;81.10
13409;DHT22;6775;49.574;11.170;2023-06-22T11:52:01;33.30;79.20
13409;DHT22;6775;49.574;11.170;2023-06-22T11:54:29;33.40;78.80
13409;DHT22;6775;49.574;11.170;2023-06-22T11:56:57;33.40;77.80
13409;DHT22;6775;49.574;11.170;2023-06-22T11:59:24;33.40;77.30
13409;DHT22;6775;49.574;11.170;2023-06-22T12:01:54;33.40;78.20
13409;DHT22;6775;49.574;11.170;2023-06-22T12:04:21;33.50;76.40
13409;DHT22;6775;49.574;11.170;2023-06-22T12:06:49;33.50;77.50
13409;DHT22;6775;49.574;11.170;2023-06-22T12:09:17;33.50;77.10
13409;DHT22;6775;49.574;11.170;2023-06-22T12:11:45;33.50;77.60
13409;DHT22;6775;49.574;11.170;2023-06-22T12:14:13;33.60;76.00
13409;DHT22;6775;49.574;11.170;2023-06-22T12:16:40;33.70;77.10
13409;DHT22;6775;49.574;11.170;2023-06-22T12:19:12;33.70;75.80
13409;DHT22;6775;49.574;11.170;2023-06-22T12:21:40;33.70;74.60
13409;DHT22;6775;49.574;11.170;2023-06-22T12:24:08;33.60;75.50
13409;DHT22;6775;49.574;11.170;2023-06-22T12:26:35;33.70;75.70
13409;DHT22;6775;49.574;11.170;2023-06-22T12:29:03;33.70;74.50
13409;DHT22;6775;49.574;11.170;2023-06-22T12:31:31;33.70;74.20
13409;DHT22;6775;49.574;11.170;2023-06-22T12:33:59;33.80;75.40
13409;DHT22;6775;49.574;11.170;2023-06-22T12:36:28;33.70;75.50
13409;DHT22;6775;49.574;11.170;2023-06-22T12:38:56;33.40;76.20
13409;DHT22;6775;49.574;11.170;2023-06-22T12:41:24;33.20;76.30
13409;DHT22;6775;49.574;11.170;2023-06-22T12:43:52;33.50;76.60
13409;DHT22;6775;49.574;11.170;2023-06-22T12:46:20;33.80;74.80
13409;DHT22;6775;49.574;11.170;2023-06-22T12:48:48;33.90;73.90
13409;DHT22;6775;49.574;11.170;2023-06-22T12:51:20;34.00;73.30
13409;DHT22;6775;49.574;11.170;2023-06-22T12:53:50;33.90;72.00
13409;DHT22;6775;49.574;11.170;2023-06-22T12:56:18;33.80;71.40
13409;DHT22;6775;49.574;11.170;2023-06-22T12:58:45;33.70;71.80
13409;DHT22;6775;49.574;11.170;2023-06-22T13:01:13;33.70;73.20
13409;DHT22;6775;49.574;11.170;2023-06-22T13:03:42;33.90;73.70
13409;DHT22;6775;49.574;11.170;2023-06-22T13:06:10;33.90;72.60
13409;DHT22;6775;49.574;11.170;2023-06-22T13:08:37;33.90;71.40
13409;DHT22;6775;49.574;11.170;2023-06-22T13:11:09;33.80;71.40
13409;DHT22;6775;49.574;11.170;2023-06-22T13:13:38;33.60;71.70
13409;DHT22;6775;49.574;11.170;2023-06-22T13:16:06;33.50;72.50
13409;DHT22;6775;49.574;11.170;2023-06-22T13:18:34;33.40;72.20
13409;DHT22;6775;49.574;11.170;2023-06-22T13:21:03;33.20;72.70
13409;DHT22;6775;49.574;11.170;2023-06-22T13:23:31;33.10;73.20
13409;DHT22;6775;49.574;11.170;2023-06-22T13:25:59;33.10;73.10
13409;DHT22;6775;49.574;11.170;2023-06-22T13:28:28;33.10;74.20
13409;DHT22;6775;49.574;11.170;2023-06-22T13:30:57;33.10;73.50
13409;DHT22;6775;49.574;11.170;2023-06-22T13:33:25;33.20;74.30
13409;DHT22;6775;49.574;11.170;2023-06-22T13:35:52;33.50;74.40
13409;DHT22;6775;49.574;11.170;2023-06-22T13:38:20;33.60;73.70
13409;DHT22;6775;49.574;11.170;2023-06-22T13:40:49;33.90;73.80
13409;DHT22;6775;49.574;11.170;2023-06-22T13:43:17;34.10;73.00
13409;DHT22;6775;49.574;11.170;2023-06-22T13:45:46;34.20;71.30
13409;DHT22;6775;49.574;11.170;2023-06-22T13:48:14;34.10;70.50
13409;DHT22;6775;49.574;11.170;2023-06-22T13:50:42;34.00;71.20
13409;DHT22;6775;49.574;11.170;2023-06-22T13:53:10;33.90;71.10
13409;DHT22;6775;49.574;11.170;2023-06-22T13:55:38;33.80;71.50
13409;DHT22;6775;49.574;11.170;2023-06-22T13:58:06;33.60;71.90
13409;DHT22;6775;49.574;11.170;2023-06-22T14:00:34;33.50;72.50
13409;DHT22;6775;49.574;11.170;2023-06-22T14:03:04;33.40;72.20
13409;DHT22;6775;49.574;11.170;2023-06-22T14:05:32;33.30;73.10
13409;DHT22;6775;49.574;11.170;2023-06-22T14:08:00;33.30;72.90
13409;DHT22;6775;49.574;11.170;2023-06-22T14:10:28;33.40;72.00
13409;DHT22;6775;49.574;11.170;2023-06-22T14:12:56;33.30;70.90
13409;DHT22;6775;49.574;11.170;2023-06-22T14:15:26;33.30;71.40
13409;DHT22;6775;49.574;11.170;2023-06-22T14:17:54;33.20;71.20
13409;DHT22;6775;49.574;11.170;2023-06-22T14:20:23;33.20;70.20
13409;DHT22;6775;49.574;11.170;2023-06-22T14:22:51;33.20;71.30
13409;DHT22;6775;49.574;11.170;2023-06-22T14:25:19;33.20;69.90
13409;DHT22;6775;49.574;11.170;2023-06-22T14:27:47;33.30;70.10
13409;DHT22;6775;49.574;11.170;2023-06-22T14:30:15;33.40;70.20
13409;DHT22;6775;49.574;11.170;2023-06-22T14:32:43;33.50;68.70
13409;DHT22;6775;49.574;11.170;2023-06-22T14:35:11;33.50;69.00
13409;DHT22;6775;49.574;11.170;2023-06-22T14:37:40;33.60;69.00
13409;DHT22;6775;49.574;11.170;2023-06-22T14:40:09;33.60;68.40
13409;DHT22;6775;49.574;11.170;2023-06-22T14:42:37;33.70;68.00
13409;DHT22;6775;49.574;11.170;2023-06-22T14:45:06;33.80;69.50
13409;DHT22;6775;49.574;11.170;2023-06-22T14:47:34;33.80;69.80
13409;DHT22;6775;49.574;11.170;2023-06-22T14:50:02;33.80;69.30
13409;DHT22;6775;49.574;11.170;2023-06-22T14:52:30;33.80;69.20
13409;DHT22;6775;49.574;11.170;2023-06-22T14:54:59;33.80;69.00
13409;DHT22;6775;49.574;11.170;2023-06-22T14:57:27;33.70;68.70
13409;DHT22;6775;49.574;11.170;2023-06-22T14:59:55;33.60;69.80
13409;DHT22;6775;49.574;11.170;2023-06-22T15:02:23;33.50;71.30
13409;DHT22;6775;49.574;11.170;2023-06-22T15:04:51;33.50;70.90
13409;DHT22;6775;49.574;11.170;2023-06-22T15:07:20;33.50;70.40
13409;DHT22;6775;49.574;11.170;2023-06-22T15:09:47;33.50;70.50
13409;DHT22;6775;49.574;11.170;2023-06-22T15:12:17;33.50;69.90
13409;DHT22;6775;49.574;11.170;2023-06-22T15:14:44;33.50;69.20
13409;DHT22;6775;49.574;11.170;2023-06-22T15:17:12;33.40;68.70
13409;DHT22;6775;49.574;11.170;2023-06-22T15:19:41;33.40;69.40
13409;DHT22;6775;49.574;11.170;2023-06-22T15:22:09;33.30;68.90
13409;DHT22;6775;49.574;11.170;2023-06-22T15:24:37;33.30;68.40
13409;DHT22;6775;49.574;11.170;2023-06-22T15:27:05;33.20;69.00
13409;DHT22;6775;49.574;11.170;2023-06-22T15:29:35;33.20;69.50
13409;DHT22;6775;49.574;11.170;2023-06-22T15:32:03;33.10;69.50
13409;DHT22;6775;49.574;11.170;2023-06-22T15:34:31;33.10;68.20
13409;DHT22;6775;49.574;11.170;2023-06-22T15:36:59;33.00;68.80
13409;DHT22;6775;49.574;11.170;2023-06-22T15:39:27;32.90;69.20